x

Isle Of Portland (03857) Weather Station

2:00 - Mon 2nd Feb 2015 All times are GMT.

  • Wind
    8mph
  • Air Temp 35°f
  • Sea Pressure 1008mb
  • Isle Of Portland
  • Isle Of Portland

More Historic Weather Station data

Upgrade to MSW Pro to gain access to the past 30 days of data for over 8000 Wavebouys and Weather Stations around the globe.

Join Pro

Comparision Forecast

View Surf forecast
   
lun. 02/02 2:00 8
mph
1008mb 35f
1:00 10
mph
1008mb 34f
12:00 11
mph
1007mb 35f
dim. 02/01 11:00 13
mph
1007mb 36f
10:00 15
mph
1007mb 37f
9:00 16
mph
1007mb 38f
8:00 17
mph
1007mb 39f
7:00 22
mph
1006mb 40f
6:00 22 29 mph 1006mb 40f
5:00 19 33 mph 1005mb 41f
4:00 23 37 mph 1005mb 42f
3:00 22 36 mph 1005mb 43f
2:00 29 36 mph 1004mb 42f
1:00 26 36 mph 1004mb 43f
12:00 26 40 mph 1004mb 41f
11:00 28 40 mph 1003mb 43f
10:00 26 39 mph 1002mb 42f
9:00 31 45 mph 1001mb 41f
8:00 32 45 mph 1000mb 40f
7:00 33 45 mph 1000mb 41f
6:00 36 48 mph 999mb 40f
5:00 33 45 mph 999mb 40f
4:00 34 49 mph 998mb 40f
3:00 36 49 mph 998mb 40f
2:00 37 51 mph 998mb 40f
1:00 36 46 mph 997mb 39f
12:00 36 48 mph 998mb 39f
sam. 01/31 11:00 31 44 mph 997mb 40f
10:00 33 44 mph 996mb 40f
9:00 34 45 mph 996mb 41f
8:00 32 44 mph 995mb 41f
7:00 33 43 mph 994mb 41f
6:00 28 44 mph 993mb 42f
5:00 29 40 mph 992mb 43f
4:00 29 39 mph 991mb 44f
3:00 26 34 mph 989mb 45f
2:00 28 38 mph 989mb 44f
1:00 26 39 mph 988mb 44f
12:00 29 39 mph 987mb 46f
11:00 26 39 mph 986mb 43f
10:00 29 43 mph 985mb 42f
9:00 29 40 mph 983mb 42f
8:00 25 34 mph 983mb 42f
7:00 23 36 mph 983mb 41f
6:00 26 37 mph 983mb 41f
5:00 24 37 mph 982mb 41f
4:00 24 36 mph 982mb 41f
3:00 24 34 mph 983mb 41f
2:00 23 33 mph 983mb 41f
1:00 23 32 mph 983mb 41f
12:00 22 31 mph 983mb 41f
ven. 01/30 11:00 23 32 mph 983mb 42f
10:00 18
mph
983mb 42f
9:00 17
mph
983mb 42f
8:00 16 30 mph 983mb 42f
7:00 21 31 mph 982mb 42f
6:00 22 32 mph 982mb 42f
5:00 17 31 mph 982mb 43f
4:00 21 39 mph 982mb 44f
3:00 21 32 mph 982mb 45f
2:00 19
mph
982mb 45f
1:00 19
mph
982mb 45f
12:00 17
mph
983mb 44f
11:00 19 31 mph 983mb 45f
10:00 26 40 mph 982mb 43f
9:00 31 45 mph 981mb 42f
8:00 38 52 mph 980mb 42f
7:00 38 63 mph 978mb 43f
6:00 43 62 mph 976mb 42f
5:00 38 54 mph 977mb 42f
4:00 41 66 mph 978mb 41f
3:00 46 59 mph 978mb 44f
2:00 43 55 mph 980mb 43f
1:00 38 55 mph 981mb 43f
12:00 46 59 mph 981mb 43f
jeu. 01/29 11:00 37 52 mph 982mb 42f
10:00 37 51 mph 982mb 41f
9:00 34 47 mph 982mb 41f
8:00 32 51 mph 982mb 42f
7:00 31 49 mph 981mb 41f
6:00 31 52 mph 981mb 39f
5:00 33 61 mph 980mb 39f
4:00 34 53 mph 980mb 38f
3:00 24 44 mph 981mb 42f
2:00 29 43 mph 982mb 44f
1:00 28 38 mph 984mb 44f
12:00 26 36 mph 986mb 44f
11:00 29 37 mph 987mb 44f
10:00 28 36 mph 989mb 44f
9:00 25 36 mph 990mb 44f
8:00 25 39 mph 992mb 43f
7:00 29 43 mph 993mb 43f
6:00 31 39 mph 994mb 43f
5:00 23 36 mph 995mb 43f
4:00 24 33 mph 997mb 43f
3:00 24 37 mph 999mb 42f